Alps Wideshine — 9HA2472 — position and weather

sailwx.info

Track history (hours):
 
Tides and Currents Weather Stations Pressure Air Temp Water Temp Dewpoint Dewpoint Depression Visibility Wind Speed Wind Dir Waves Ship Positions

Alps Wideshine

Last reported at 2015-Jul-16 17:32 UTC. Time now 2015-Sep-01 07:59 UTC.
Position N 29°55' W 089°56'.
Warning: this ship's position is 46 days out of date.

Length 107 m; draft 5.6 m.

Type: Tanker. MMSI: 248694000.

Date/timePositionNaut miles runAvg speedWind from/ knotsBaromVisibWave heightAir tempDewpointWater temp
2015-Jul-16 17:32N 29°55' W 089°56'10 9.9
2015-Jul-16 16:29N 29°56' W 090°08'  
2015-Jul-11 21:33N 25°58' W 079°32'9 9.3
2015-Jul-11 20:33N 26°07' W 079°31'33210.0
2015-Jul-10 11:11N 31°38' W 080°10'711.6
2015-Jul-10 10:33N 31°45' W 080°12'1111.6
2015-Jul-10 09:34N 31°56' W 080°15'1412.4
2015-Jul-10 08:28N 31°57' W 080°31'1011.5
2015-Jul-10 07:33N 31°58' W 080°43'1010.0
2015-Jul-10 06:33N 32°02' W 080°53'8 8.0
2015-Jul-10 05:33N 32°05' W 081°02'5 5.0
2015-Jul-10 04:31N 32°07' W 081°08'0 0.0
2015-Jul-10 03:31N 32°07' W 081°08'0 0.0
2015-Jul-10 02:31N 32°07' W 081°08'0 0.0
2015-Jul-10 01:31N 32°07' W 081°08'0 0.0
2015-Jul-10 00:31N 32°07' W 081°08'0 0.0
2015-Jul-09 23:31N 32°07' W 081°08'0 0.0
2015-Jul-09 22:31N 32°07' W 081°08'0 0.0
2015-Jul-09 21:31N 32°07' W 081°08'0 0.0
2015-Jul-09 20:31N 32°07' W 081°08'0 0.0
2015-Jul-09 19:31N 32°07' W 081°08'0 0.0
2015-Jul-09 18:31N 32°07' W 081°08'0 0.0
2015-Jul-09 17:31N 32°07' W 081°08'0 0.0
2015-Jul-09 16:31N 32°07' W 081°08'0 0.0
2015-Jul-09 15:28N 32°07' W 081°08'0 0.0
2015-Jul-09 14:31N 32°07' W 081°08'0 0.0
2015-Jul-09 13:31N 32°07' W 081°08'0 0.0
2015-Jul-09 12:31N 32°07' W 081°08'0 0.0
2015-Jul-09 11:28N 32°07' W 081°08'0 0.0
2015-Jul-09 10:28N 32°07' W 081°08'0 0.0
2015-Jul-09 09:31N 32°07' W 081°08'0 0.0
2015-Jul-09 08:31N 32°07' W 081°08'0 0.0
2015-Jul-09 07:31N 32°07' W 081°08'0 0.0
2015-Jul-09 06:31N 32°07' W 081°08'0 0.0
2015-Jul-09 05:31N 32°07' W 081°08'0 0.0
2015-Jul-09 04:31N 32°07' W 081°08'1 1.5
2015-Jul-09 03:33N 32°06' W 081°07'7 6.7
2015-Jul-09 02:33N 32°05' W 080°59'1010.2
2015-Jul-09 01:33N 32°01' W 080°48'9 8.7
2015-Jul-09 00:33N 31°56' W 080°39'8 7.7
2015-Jul-08 23:33N 31°56' W 080°30'1010.0
2015-Jul-08 22:33N 31°56' W 080°18'10 9.9
2015-Jul-08 21:33N 31°57' W 080°07'11 9.9
2015-Jul-08 20:25N 32°00' W 079°54'13 9.8
2015-Jul-08 19:05N 32°02' W 079°39'  
Track history (hours):
 
Tides and Currents Weather Stations Pressure Air Temp Water Temp Dewpoint Dewpoint Depression Visibility Wind Speed Wind Dir Waves Ship Positions

Alps Wideshine

Last reported at 2015-Jul-16 17:32 UTC. Time now 2015-Sep-01 07:59 UTC.
Position N 29°55' W 089°56'.
Warning: this ship's position is 46 days out of date.

Length 107 m; draft 5.6 m.

Type: Tanker. MMSI: 248694000.

Date/timePositionNaut miles runAvg speedWind from/ knotsBaromVisibWave heightAir tempDewpointWater temp
2015-Jul-16 17:32N 29°55' W 089°56'10 9.9
2015-Jul-16 16:29N 29°56' W 090°08'  
2015-Jul-11 21:33N 25°58' W 079°32'9 9.3
2015-Jul-11 20:33N 26°07' W 079°31'33210.0
2015-Jul-10 11:11N 31°38' W 080°10'711.6
2015-Jul-10 10:33N 31°45' W 080°12'1111.6
2015-Jul-10 09:34N 31°56' W 080°15'1412.4
2015-Jul-10 08:28N 31°57' W 080°31'1011.5
2015-Jul-10 07:33N 31°58' W 080°43'1010.0
2015-Jul-10 06:33N 32°02' W 080°53'8 8.0
2015-Jul-10 05:33N 32°05' W 081°02'5 5.0
2015-Jul-10 04:31N 32°07' W 081°08'0 0.0
2015-Jul-10 03:31N 32°07' W 081°08'0 0.0
2015-Jul-10 02:31N 32°07' W 081°08'0 0.0
2015-Jul-10 01:31N 32°07' W 081°08'0 0.0
2015-Jul-10 00:31N 32°07' W 081°08'0 0.0
2015-Jul-09 23:31N 32°07' W 081°08'0 0.0
2015-Jul-09 22:31N 32°07' W 081°08'0 0.0
2015-Jul-09 21:31N 32°07' W 081°08'0 0.0
2015-Jul-09 20:31N 32°07' W 081°08'0 0.0
2015-Jul-09 19:31N 32°07' W 081°08'0 0.0
2015-Jul-09 18:31N 32°07' W 081°08'0 0.0
2015-Jul-09 17:31N 32°07' W 081°08'0 0.0
2015-Jul-09 16:31N 32°07' W 081°08'0 0.0
2015-Jul-09 15:28N 32°07' W 081°08'0 0.0
2015-Jul-09 14:31N 32°07' W 081°08'0 0.0
2015-Jul-09 13:31N 32°07' W 081°08'0 0.0
2015-Jul-09 12:31N 32°07' W 081°08'0 0.0
2015-Jul-09 11:28N 32°07' W 081°08'0 0.0
2015-Jul-09 10:28N 32°07' W 081°08'0 0.0
2015-Jul-09 09:31N 32°07' W 081°08'0 0.0
2015-Jul-09 08:31N 32°07' W 081°08'0 0.0
2015-Jul-09 07:31N 32°07' W 081°08'0 0.0
2015-Jul-09 06:31N 32°07' W 081°08'0 0.0
2015-Jul-09 05:31N 32°07' W 081°08'0 0.0
2015-Jul-09 04:31N 32°07' W 081°08'1 1.5
2015-Jul-09 03:33N 32°06' W 081°07'7 6.7
2015-Jul-09 02:33N 32°05' W 080°59'1010.2
2015-Jul-09 01:33N 32°01' W 080°48'9 8.7
2015-Jul-09 00:33N 31°56' W 080°39'8 7.7
2015-Jul-08 23:33N 31°56' W 080°30'1010.0
2015-Jul-08 22:33N 31°56' W 080°18'10 9.9
2015-Jul-08 21:33N 31°57' W 080°07'11 9.9
2015-Jul-08 20:25N 32°00' W 079°54'13 9.8
2015-Jul-08 19:05N 32°02' W 079°39'  

Dump ship's entire track history